sensor_id;sensor_type;location;lat;lon;timestamp;pressure;altitude;pressure_sealevel;temperature;humidity
78613;BME280;67933;51.060;3.638;2023-12-20T00:01:17;101938.00;;;3.99;100.00
78613;BME280;67933;51.060;3.638;2023-12-20T00:03:42;101936.38;;;3.89;100.00
78613;BME280;67933;51.060;3.638;2023-12-20T00:06:08;101939.94;;;3.85;100.00
78613;BME280;67933;51.060;3.638;2023-12-20T00:08:33;101940.84;;;3.82;100.00
78613;BME280;67933;51.060;3.638;2023-12-20T00:10:58;101936.56;;;3.74;100.00
78613;BME280;67933;51.060;3.638;2023-12-20T00:13:24;101928.69;;;3.74;100.00
78613;BME280;67933;51.060;3.638;2023-12-20T00:15:49;101942.69;;;3.74;100.00
78613;BME280;67933;51.060;3.638;2023-12-20T00:18:14;101927.81;;;3.75;100.00
78613;BME280;67933;51.060;3.638;2023-12-20T00:20:40;101932.19;;;3.74;100.00
78613;BME280;67933;51.060;3.638;2023-12-20T00:23:05;101935.59;;;3.79;100.00
78613;BME280;67933;51.060;3.638;2023-12-20T00:25:31;101940.84;;;3.82;100.00
78613;BME280;67933;51.060;3.638;2023-12-20T00:27:56;101931.28;;;3.78;100.00
78613;BME280;67933;51.060;3.638;2023-12-20T00:30:21;101930.34;;;3.81;100.00
78613;BME280;67933;51.060;3.638;2023-12-20T00:32:47;101927.69;;;3.84;100.00
78613;BME280;67933;51.060;3.638;2023-12-20T00:35:13;101921.59;;;3.80;100.00
78613;BME280;67933;51.060;3.638;2023-12-20T00:37:39;101931.19;;;3.86;100.00
78613;BME280;67933;51.060;3.638;2023-12-20T00:40:05;101925.06;;;3.85;100.00
78613;BME280;67933;51.060;3.638;2023-12-20T00:42:30;101925.09;;;3.82;100.00
78613;BME280;67933;51.060;3.638;2023-12-20T00:44:55;101923.41;;;3.78;100.00
78613;BME280;67933;51.060;3.638;2023-12-20T00:47:21;101925.97;;;3.80;100.00
78613;BME280;67933;51.060;3.638;2023-12-20T00:49:47;101915.56;;;3.74;100.00
78613;BME280;67933;51.060;3.638;2023-12-20T00:52:12;101912.09;;;3.72;100.00
78613;BME280;67933;51.060;3.638;2023-12-20T00:54:38;101916.41;;;3.77;100.00
78613;BME280;67933;51.060;3.638;2023-12-20T00:57:04;101932.97;;;3.79;100.00
78613;BME280;67933;51.060;3.638;2023-12-20T00:59:29;101938.31;;;3.75;100.00
78613;BME280;67933;51.060;3.638;2023-12-20T01:01:54;101932.09;;;3.80;100.00
78613;BME280;67933;51.060;3.638;2023-12-20T01:04:20;101937.31;;;3.85;100.00
78613;BME280;67933;51.060;3.638;2023-12-20T01:06:45;101932.91;;;3.87;100.00
78613;BME280;67933;51.060;3.638;2023-12-20T01:09:11;101940.72;;;3.90;100.00
78613;BME280;67933;51.060;3.638;2023-12-20T01:11:36;101933.81;;;3.83;100.00
78613;BME280;67933;51.060;3.638;2023-12-20T01:14:01;101939.94;;;3.83;100.00
78613;BME280;67933;51.060;3.638;2023-12-20T01:16:27;101950.31;;;3.94;100.00
78613;BME280;67933;51.060;3.638;2023-12-20T01:18:52;101950.06;;;4.12;100.00
78613;BME280;67933;51.060;3.638;2023-12-20T01:21:17;101948.13;;;4.26;100.00
78613;BME280;67933;51.060;3.638;2023-12-20T01:23:43;101959.34;;;4.38;100.00
78613;BME280;67933;51.060;3.638;2023-12-20T01:26:09;101946.09;;;4.45;100.00
78613;BME280;67933;51.060;3.638;2023-12-20T01:28:34;101946.91;;;4.50;100.00
78613;BME280;67933;51.060;3.638;2023-12-20T01:30:59;101939.06;;;4.49;100.00
78613;BME280;67933;51.060;3.638;2023-12-20T01:33:25;101937.38;;;4.42;100.00
78613;BME280;67933;51.060;3.638;2023-12-20T01:35:50;101931.34;;;4.35;100.00
78613;BME280;67933;51.060;3.638;2023-12-20T01:38:16;101926.19;;;4.31;100.00
78613;BME280;67933;51.060;3.638;2023-12-20T01:40:44;101923.56;;;4.31;100.00
78613;BME280;67933;51.060;3.638;2023-12-20T01:43:09;101926.19;;;4.31;100.00
78613;BME280;67933;51.060;3.638;2023-12-20T01:45:36;101925.22;;;4.35;100.00
78613;BME280;67933;51.060;3.638;2023-12-20T01:48:02;101920.75;;;4.43;100.00
78613;BME280;67933;51.060;3.638;2023-12-20T01:50:30;101936.44;;;4.47;100.00
78613;BME280;67933;51.060;3.638;2023-12-20T01:52:58;101941.72;;;4.46;100.00
78613;BME280;67933;51.060;3.638;2023-12-20T01:55:25;101935.69;;;4.39;100.00
78613;BME280;67933;51.060;3.638;2023-12-20T01:57:52;101938.38;;;4.35;100.00
78613;BME280;67933;51.060;3.638;2023-12-20T02:00:18;101941.94;;;4.32;100.00
78613;BME280;67933;51.060;3.638;2023-12-20T02:02:48;101943.56;;;4.39;100.00
78613;BME280;67933;51.060;3.638;2023-12-20T02:05:16;101936.44;;;4.49;100.00
78613;BME280;67933;51.060;3.638;2023-12-20T02:07:41;101940.72;;;4.53;100.00
78613;BME280;67933;51.060;3.638;2023-12-20T02:10:07;101941.59;;;4.53;100.00
78613;BME280;67933;51.060;3.638;2023-12-20T02:12:33;101937.13;;;4.60;100.00
78613;BME280;67933;51.060;3.638;2023-12-20T02:14:59;101930.03;;;4.65;100.00
78613;BME280;67933;51.060;3.638;2023-12-20T02:17:25;101930.78;;;4.73;100.00
78613;BME280;67933;51.060;3.638;2023-12-20T02:19:51;101930.66;;;4.81;100.00
78613;BME280;67933;51.060;3.638;2023-12-20T02:22:16;101935.84;;;4.85;100.00
78613;BME280;67933;51.060;3.638;2023-12-20T02:24:41;101938.38;;;4.90;100.00
78613;BME280;67933;51.060;3.638;2023-12-20T02:27:08;101940.84;;;5.00;100.00
78613;BME280;67933;51.060;3.638;2023-12-20T02:29:34;101938.09;;;5.07;100.00
78613;BME280;67933;51.060;3.638;2023-12-20T02:32:00;101927.59;;;5.07;100.00
78613;BME280;67933;51.060;3.638;2023-12-20T02:34:25;101940.75;;;5.05;100.00
78613;BME280;67933;51.060;3.638;2023-12-20T02:36:51;101936.31;;;5.09;100.00
78613;BME280;67933;51.060;3.638;2023-12-20T02:39:16;101946.69;;;5.18;100.00
78613;BME280;67933;51.060;3.638;2023-12-20T02:41:42;101929.16;;;5.17;100.00
78613;BME280;67933;51.060;3.638;2023-12-20T02:44:07;101935.19;;;5.23;100.00
78613;BME280;67933;51.060;3.638;2023-12-20T02:46:33;101931.53;;;5.30;100.00
78613;BME280;67933;51.060;3.638;2023-12-20T02:48:58;101932.34;;;5.34;100.00
78613;BME280;67933;51.060;3.638;2023-12-20T02:51:23;101920.13;;;5.30;100.00
78613;BME280;67933;51.060;3.638;2023-12-20T02:53:49;101921.00;;;5.30;100.00
78613;BME280;67933;51.060;3.638;2023-12-20T02:56:14;101921.00;;;5.32;100.00
78613;BME280;67933;51.060;3.638;2023-12-20T02:58:40;101920.16;;;5.28;100.00
78613;BME280;67933;51.060;3.638;2023-12-20T03:01:05;101922.00;;;5.25;100.00
78613;BME280;67933;51.060;3.638;2023-12-20T03:03:31;101914.00;;;5.31;100.00
78613;BME280;67933;51.060;3.638;2023-12-20T03:05:57;101920.97;;;5.33;100.00
78613;BME280;67933;51.060;3.638;2023-12-20T03:08:22;101928.75;;;5.39;100.00
78613;BME280;67933;51.060;3.638;2023-12-20T03:10:48;101921.75;;;5.38;100.00
78613;BME280;67933;51.060;3.638;2023-12-20T03:13:13;101925.28;;;5.36;100.00
78613;BME280;67933;51.060;3.638;2023-12-20T03:15:38;101928.63;;;5.44;100.00
78613;BME280;67933;51.060;3.638;2023-12-20T03:18:04;101923.44;;;5.41;100.00
78613;BME280;67933;51.060;3.638;2023-12-20T03:20:29;101925.34;;;5.33;100.00
78613;BME280;67933;51.060;3.638;2023-12-20T03:22:58;101925.56;;;5.21;100.00
78613;BME280;67933;51.060;3.638;2023-12-20T03:25:23;101930.16;;;5.10;100.00
78613;BME280;67933;51.060;3.638;2023-12-20T03:27:49;101923.28;;;5.02;100.00
78613;BME280;67933;51.060;3.638;2023-12-20T03:30:14;101924.84;;;5.11;100.00
78613;BME280;67933;51.060;3.638;2023-12-20T03:32:39;101921.28;;;5.15;100.00
78613;BME280;67933;51.060;3.638;2023-12-20T03:35:05;101917.69;;;5.21;100.00
78613;BME280;67933;51.060;3.638;2023-12-20T03:37:31;101927.31;;;5.22;100.00
78613;BME280;67933;51.060;3.638;2023-12-20T03:39:56;101927.31;;;5.22;100.00
78613;BME280;67933;51.060;3.638;2023-12-20T03:42:22;101915.22;;;5.12;100.00
78613;BME280;67933;51.060;3.638;2023-12-20T03:44:47;101923.81;;;5.20;100.00
78613;BME280;67933;51.060;3.638;2023-12-20T03:47:12;101936.16;;;5.18;100.00
78613;BME280;67933;51.060;3.638;2023-12-20T03:49:38;101942.34;;;5.15;100.00
78613;BME280;67933;51.060;3.638;2023-12-20T03:52:04;101921.34;;;5.12;100.00
78613;BME280;67933;51.060;3.638;2023-12-20T03:54:30;101923.97;;;5.12;100.00
78613;BME280;67933;51.060;3.638;2023-12-20T03:56:55;101927.53;;;5.10;100.00
78613;BME280;67933;51.060;3.638;2023-12-20T03:59:20;101925.88;;;5.04;100.00
78613;BME280;67933;51.060;3.638;2023-12-20T04:01:46;101920.59;;;5.06;100.00
78613;BME280;67933;51.060;3.638;2023-12-20T04:04:13;101922.44;;;5.00;100.00
78613;BME280;67933;51.060;3.638;2023-12-20T04:06:38;101913.69;;;4.98;100.00
78613;BME280;67933;51.060;3.638;2023-12-20T04:09:04;101918.09;;;4.98;100.00
78613;BME280;67933;51.060;3.638;2023-12-20T04:11:29;101920.75;;;4.96;100.00
78613;BME280;67933;51.060;3.638;2023-12-20T04:13:55;101931.22;;;4.99;100.00
78613;BME280;67933;51.060;3.638;2023-12-20T04:16:20;101939.00;;;5.04;100.00
78613;BME280;67933;51.060;3.638;2023-12-20T04:18:46;101938.19;;;5.02;100.00
78613;BME280;67933;51.060;3.638;2023-12-20T04:21:11;101925.91;;;5.02;100.00
78613;BME280;67933;51.060;3.638;2023-12-20T04:23:37;101931.09;;;5.06;100.00
78613;BME280;67933;51.060;3.638;2023-12-20T04:26:02;101938.06;;;5.10;100.00
78613;BME280;67933;51.060;3.638;2023-12-20T04:28:27;101936.25;;;5.12;100.00
78613;BME280;67933;51.060;3.638;2023-12-20T04:30:55;101926.66;;;5.11;100.00
78613;BME280;67933;51.060;3.638;2023-12-20T04:33:21;101925.81;;;5.09;100.00
78613;BME280;67933;51.060;3.638;2023-12-20T04:35:47;101928.50;;;5.04;100.00
78613;BME280;67933;51.060;3.638;2023-12-20T04:38:12;101929.59;;;4.92;100.00
78613;BME280;67933;51.060;3.638;2023-12-20T04:40:37;101926.06;;;4.93;100.00
78613;BME280;67933;51.060;3.638;2023-12-20T04:43:03;101926.25;;;4.83;100.00
78613;BME280;67933;51.060;3.638;2023-12-20T04:45:29;101930.75;;;4.75;100.00
78613;BME280;67933;51.060;3.638;2023-12-20T04:47:55;101927.19;;;4.79;100.00
78613;BME280;67933;51.060;3.638;2023-12-20T04:50:20;101923.88;;;4.66;100.00
78613;BME280;67933;51.060;3.638;2023-12-20T04:52:46;101930.22;;;4.53;100.00
78613;BME280;67933;51.060;3.638;2023-12-20T04:55:12;101936.44;;;4.49;100.00
78613;BME280;67933;51.060;3.638;2023-12-20T04:57:37;101941.59;;;4.55;100.00
78613;BME280;67933;51.060;3.638;2023-12-20T05:00:03;101939.13;;;4.43;100.00
78613;BME280;67933;51.060;3.638;2023-12-20T05:02:29;101939.31;;;4.31;100.00
78613;BME280;67933;51.060;3.638;2023-12-20T05:04:55;101934.94;;;4.31;100.00
78613;BME280;67933;51.060;3.638;2023-12-20T05:07:20;101934.06;;;4.32;100.00
78613;BME280;67933;51.060;3.638;2023-12-20T05:09:46;101927.81;;;4.38;100.00
78613;BME280;67933;51.060;3.638;2023-12-20T05:12:11;101925.06;;;4.48;100.00
78613;BME280;67933;51.060;3.638;2023-12-20T05:14:36;101925.88;;;4.50;100.00
78613;BME280;67933;51.060;3.638;2023-12-20T05:17:02;101921.38;;;4.57;100.00
78613;BME280;67933;51.060;3.638;2023-12-20T05:19:28;101918.63;;;4.66;100.00
78613;BME280;67933;51.060;3.638;2023-12-20T05:21:53;101926.47;;;4.69;100.00
78613;BME280;67933;51.060;3.638;2023-12-20T05:24:19;101924.69;;;4.71;100.00
78613;BME280;67933;51.060;3.638;2023-12-20T05:26:44;101923.84;;;4.68;100.00
78613;BME280;67933;51.060;3.638;2023-12-20T05:29:09;101923.06;;;4.64;100.00
78613;BME280;67933;51.060;3.638;2023-12-20T05:31:35;101912.59;;;4.61;100.00
78613;BME280;67933;51.060;3.638;2023-12-20T05:34:00;101915.22;;;4.61;100.00
78613;BME280;67933;51.060;3.638;2023-12-20T05:36:26;101923.06;;;4.64;100.00
78613;BME280;67933;51.060;3.638;2023-12-20T05:38:51;101918.75;;;4.58;100.00
78613;BME280;67933;51.060;3.638;2023-12-20T05:41:16;101919.56;;;4.62;100.00
78613;BME280;67933;51.060;3.638;2023-12-20T05:43:42;101923.88;;;4.66;100.00
78613;BME280;67933;51.060;3.638;2023-12-20T05:46:10;101917.72;;;4.67;100.00
78613;BME280;67933;51.060;3.638;2023-12-20T05:48:35;101919.50;;;4.65;100.00
78613;BME280;67933;51.060;3.638;2023-12-20T05:51:00;101924.22;;;4.43;100.00
78613;BME280;67933;51.060;3.638;2023-12-20T05:53:26;101923.66;;;4.24;100.00
78613;BME280;67933;51.060;3.638;2023-12-20T05:55:51;101925.53;;;4.13;100.00
78613;BME280;67933;51.060;3.638;2023-12-20T05:58:17;101931.00;;;4.00;100.00
78613;BME280;67933;51.060;3.638;2023-12-20T06:00:42;101942.47;;;3.91;100.00
78613;BME280;67933;51.060;3.638;2023-12-20T06:03:07;101940.81;;;3.84;100.00
78613;BME280;67933;51.060;3.638;2023-12-20T06:05:33;101934.72;;;3.80;100.00
78613;BME280;67933;51.060;3.638;2023-12-20T06:07:58;101936.53;;;3.75;100.00
78613;BME280;67933;51.060;3.638;2023-12-20T06:10:28;101932.28;;;3.67;100.00
78613;BME280;67933;51.060;3.638;2023-12-20T06:12:53;101940.22;;;3.61;100.00
78613;BME280;67933;51.060;3.638;2023-12-20T06:15:19;101931.47;;;3.60;100.00
78613;BME280;67933;51.060;3.638;2023-12-20T06:17:45;101929.81;;;3.55;100.00
78613;BME280;67933;51.060;3.638;2023-12-20T06:20:12;101924.56;;;3.52;100.00
78613;BME280;67933;51.060;3.638;2023-12-20T06:22:38;101926.31;;;3.56;100.00
78613;BME280;67933;51.060;3.638;2023-12-20T06:25:04;101922.81;;;3.52;100.00
78613;BME280;67933;51.060;3.638;2023-12-20T06:27:30;101934.19;;;3.53;100.00
78613;BME280;67933;51.060;3.638;2023-12-20T06:29:57;101927.22;;;3.50;100.00
78613;BME280;67933;51.060;3.638;2023-12-20T06:32:23;101932.53;;;3.44;100.00
78613;BME280;67933;51.060;3.638;2023-12-20T06:34:49;101932.53;;;3.45;100.00
78613;BME280;67933;51.060;3.638;2023-12-20T06:37:15;101932.59;;;3.39;100.00
78613;BME280;67933;51.060;3.638;2023-12-20T06:39:40;101935.22;;;3.39;100.00
78613;BME280;67933;51.060;3.638;2023-12-20T06:42:06;101939.63;;;3.36;100.00
78613;BME280;67933;51.060;3.638;2023-12-20T06:44:31;101940.56;;;3.27;100.00
78613;BME280;67933;51.060;3.638;2023-12-20T06:46:57;101940.56;;;3.30;100.00
78613;BME280;67933;51.060;3.638;2023-12-20T06:49:23;101946.69;;;3.26;100.00
78613;BME280;67933;51.060;3.638;2023-12-20T06:51:48;101939.69;;;3.30;100.00
78613;BME280;67933;51.060;3.638;2023-12-20T06:54:14;101924.88;;;3.24;100.00
78613;BME280;67933;51.060;3.638;2023-12-20T06:56:39;101930.94;;;3.31;100.00
78613;BME280;67933;51.060;3.638;2023-12-20T06:59:06;101924.78;;;3.33;100.00
78613;BME280;67933;51.060;3.638;2023-12-20T07:01:31;101915.19;;;3.31;100.00
78613;BME280;67933;51.060;3.638;2023-12-20T07:03:57;101917.84;;;3.26;100.00
78613;BME280;67933;51.060;3.638;2023-12-20T07:06:22;101917.91;;;3.23;100.00
78613;BME280;67933;51.060;3.638;2023-12-20T07:08:48;101910.06;;;3.19;100.00
78613;BME280;67933;51.060;3.638;2023-12-20T07:11:13;101913.59;;;3.16;100.00
78613;BME280;67933;51.060;3.638;2023-12-20T07:13:39;101909.19;;;3.20;100.00
78613;BME280;67933;51.060;3.638;2023-12-20T07:16:04;101909.16;;;3.24;100.00
78613;BME280;67933;51.060;3.638;2023-12-20T07:18:30;101916.19;;;3.19;100.00
78613;BME280;67933;51.060;3.638;2023-12-20T07:20:55;101915.31;;;3.19;100.00
78613;BME280;67933;51.060;3.638;2023-12-20T07:23:21;101931.97;;;3.13;100.00
78613;BME280;67933;51.060;3.638;2023-12-20T07:25:46;101918.00;;;3.13;100.00
78613;BME280;67933;51.060;3.638;2023-12-20T07:28:12;101910.94;;;3.19;100.00
78613;BME280;67933;51.060;3.638;2023-12-20T07:30:37;101910.81;;;3.31;100.00
78613;BME280;67933;51.060;3.638;2023-12-20T07:33:03;101913.34;;;3.40;100.00
78613;BME280;67933;51.060;3.638;2023-12-20T07:35:28;101925.59;;;3.40;100.00
78613;BME280;67933;51.060;3.638;2023-12-20T07:37:54;101930.88;;;3.37;100.00
78613;BME280;67933;51.060;3.638;2023-12-20T07:40:19;101930.06;;;3.32;100.00
78613;BME280;67933;51.060;3.638;2023-12-20T07:42:45;101933.56;;;3.29;100.00
78613;BME280;67933;51.060;3.638;2023-12-20T07:45:10;101941.50;;;3.25;100.00
78613;BME280;67933;51.060;3.638;2023-12-20T07:47:37;101939.78;;;3.18;100.00
78613;BME280;67933;51.060;3.638;2023-12-20T07:50:02;101940.66;;;3.18;100.00
78613;BME280;67933;51.060;3.638;2023-12-20T07:52:29;101952.00;;;3.20;100.00
78613;BME280;67933;51.060;3.638;2023-12-20T07:54:54;101950.25;;;3.21;100.00
78613;BME280;67933;51.060;3.638;2023-12-20T07:57:20;101948.53;;;3.18;100.00
78613;BME280;67933;51.060;3.638;2023-12-20T07:59:46;101945.03;;;3.19;100.00
78613;BME280;67933;51.060;3.638;2023-12-20T08:02:11;101945.88;;;3.20;100.00
78613;BME280;67933;51.060;3.638;2023-12-20T08:04:37;101946.75;;;3.20;100.00
78613;BME280;67933;51.060;3.638;2023-12-20T08:07:03;101949.38;;;3.23;100.00
78613;BME280;67933;51.060;3.638;2023-12-20T08:09:28;101938.84;;;3.26;100.00
78613;BME280;67933;51.060;3.638;2023-12-20T08:11:54;101944.94;;;3.28;100.00
78613;BME280;67933;51.060;3.638;2023-12-20T08:14:19;101945.72;;;3.39;100.00
78613;BME280;67933;51.060;3.638;2023-12-20T08:16:44;101943.00;;;3.45;100.00
78613;BME280;67933;51.060;3.638;2023-12-20T08:19:10;101942.94;;;3.53;100.00
78613;BME280;67933;51.060;3.638;2023-12-20T08:21:35;101945.44;;;3.64;100.00
78613;BME280;67933;51.060;3.638;2023-12-20T08:24:01;101940.09;;;3.71;100.00
78613;BME280;67933;51.060;3.638;2023-12-20T08:26:26;101938.22;;;3.81;100.00
78613;BME280;67933;51.060;3.638;2023-12-20T08:28:52;101946.03;;;3.87;100.00
78613;BME280;67933;51.060;3.638;2023-12-20T08:31:17;101931.03;;;3.95;100.00
78613;BME280;67933;51.060;3.638;2023-12-20T08:33:44;101925.63;;;4.10;100.00
78613;BME280;67933;51.060;3.638;2023-12-20T08:36:10;101927.84;;;4.36;100.00
78613;BME280;67933;51.060;3.638;2023-12-20T08:38:36;101914.88;;;4.81;100.00
78613;BME280;67933;51.060;3.638;2023-12-20T08:41:01;101920.19;;;5.27;100.00
78613;BME280;67933;51.060;3.638;2023-12-20T08:43:28;101910.75;;;5.61;100.00
78613;BME280;67933;51.060;3.638;2023-12-20T08:45:54;101921.25;;;6.06;100.00
78613;BME280;67933;51.060;3.638;2023-12-20T08:48:19;101923.00;;;6.45;100.00
78613;BME280;67933;51.060;3.638;2023-12-20T08:50:45;101931.06;;;6.75;100.00
78613;BME280;67933;51.060;3.638;2023-12-20T08:53:11;101934.38;;;6.83;100.00
78613;BME280;67933;51.060;3.638;2023-12-20T08:55:37;101940.81;;;6.73;100.00
78613;BME280;67933;51.060;3.638;2023-12-20T08:58:02;101931.44;;;6.60;100.00
78613;BME280;67933;51.060;3.638;2023-12-20T09:00:27;101946.38;;;6.59;100.00
78613;BME280;67933;51.060;3.638;2023-12-20T09:02:54;101949.22;;;6.51;100.00
78613;BME280;67933;51.060;3.638;2023-12-20T09:05:20;101958.41;;;6.34;100.00
78613;BME280;67933;51.060;3.638;2023-12-20T09:07:45;101956.72;;;6.31;100.00
78613;BME280;67933;51.060;3.638;2023-12-20T09:10:10;101954.25;;;6.24;100.00
78613;BME280;67933;51.060;3.638;2023-12-20T09:12:36;101944.56;;;6.24;100.00
78613;BME280;67933;51.060;3.638;2023-12-20T09:15:05;101944.59;;;6.23;100.00
78613;BME280;67933;51.060;3.638;2023-12-20T09:17:30;101941.94;;;6.24;100.00
78613;BME280;67933;51.060;3.638;2023-12-20T09:19:56;101940.03;;;6.31;100.00
78613;BME280;67933;51.060;3.638;2023-12-20T09:22:21;101932.16;;;6.29;100.00
78613;BME280;67933;51.060;3.638;2023-12-20T09:24:47;101924.69;;;6.11;100.00
78613;BME280;67933;51.060;3.638;2023-12-20T09:27:12;101915.50;;;6.66;100.00
78613;BME280;67933;51.060;3.638;2023-12-20T09:29:38;101917.88;;;7.10;100.00
78613;BME280;67933;51.060;3.638;2023-12-20T09:32:03;101920.84;;;7.30;100.00
78613;BME280;67933;51.060;3.638;2023-12-20T09:34:29;101917.38;;;7.28;100.00
78613;BME280;67933;51.060;3.638;2023-12-20T09:36:55;101913.50;;;7.09;100.00
78613;BME280;67933;51.060;3.638;2023-12-20T09:39:20;101917.66;;;7.19;100.00
78613;BME280;67933;51.060;3.638;2023-12-20T09:42:02;101920.44;;;7.46;100.00
78613;BME280;67933;51.060;3.638;2023-12-20T09:44:29;101914.09;;;7.51;100.00
78613;BME280;67933;51.060;3.638;2023-12-20T09:46:55;101915.25;;;7.43;100.00
78613;BME280;67933;51.060;3.638;2023-12-20T09:49:21;101932.28;;;7.31;100.00
78613;BME280;67933;51.060;3.638;2023-12-20T09:51:47;101922.81;;;7.22;100.00
78613;BME280;67933;51.060;3.638;2023-12-20T09:54:16;101920.53;;;7.10;100.00
78613;BME280;67933;51.060;3.638;2023-12-20T09:56:42;101919.91;;;6.99;100.00
78613;BME280;67933;51.060;3.638;2023-12-20T09:59:08;101923.44;;;6.98;100.00
78613;BME280;67933;51.060;3.638;2023-12-20T10:01:34;101929.63;;;6.97;100.00
78613;BME280;67933;51.060;3.638;2023-12-20T10:04:00;101919.91;;;6.99;100.00
78613;BME280;67933;51.060;3.638;2023-12-20T10:06:28;101919.09;;;6.97;100.00
78613;BME280;67933;51.060;3.638;2023-12-20T10:08:54;101925.28;;;6.96;100.00
78613;BME280;67933;51.060;3.638;2023-12-20T10:11:19;101913.06;;;6.92;100.00
78613;BME280;67933;51.060;3.638;2023-12-20T10:13:47;101918.44;;;6.89;100.00
78613;BME280;67933;51.060;3.638;2023-12-20T10:16:13;101910.38;;;6.95;100.00
78613;BME280;67933;51.060;3.638;2023-12-20T10:18:39;101906.75;;;6.97;100.00
78613;BME280;67933;51.060;3.638;2023-12-20T10:21:04;101908.44;;;7.02;100.00
78613;BME280;67933;51.060;3.638;2023-12-20T10:23:31;101912.91;;;6.98;100.00
78613;BME280;67933;51.060;3.638;2023-12-20T10:25:58;101918.19;;;6.98;100.00
78613;BME280;67933;51.060;3.638;2023-12-20T10:28:23;101915.66;;;6.93;100.00
78613;BME280;67933;51.060;3.638;2023-12-20T10:30:53;101909.47;;;6.96;100.00
78613;BME280;67933;51.060;3.638;2023-12-20T10:33:25;101897.25;;;6.92;100.00
78613;BME280;67933;51.060;3.638;2023-12-20T10:35:52;101892.97;;;6.88;100.00
78613;BME280;67933;51.060;3.638;2023-12-20T10:38:18;101885.06;;;6.88;100.00
78613;BME280;67933;51.060;3.638;2023-12-20T10:40:45;101885.78;;;6.93;100.00
78613;BME280;67933;51.060;3.638;2023-12-20T10:43:11;101899.69;;;7.00;100.00
78613;BME280;67933;51.060;3.638;2023-12-20T10:45:37;101888.19;;;7.02;100.00
78613;BME280;67933;51.060;3.638;2023-12-20T10:48:03;101887.34;;;7.00;100.00
78613;BME280;67933;51.060;3.638;2023-12-20T10:50:30;101881.84;;;7.09;100.00
78613;BME280;67933;51.060;3.638;2023-12-20T10:52:56;101877.44;;;7.10;100.00
78613;BME280;67933;51.060;3.638;2023-12-20T10:55:26;101867.53;;;7.18;100.00
78613;BME280;67933;51.060;3.638;2023-12-20T10:57:51;101871.72;;;7.26;100.00
78613;BME280;67933;51.060;3.638;2023-12-20T11:00:18;101870.63;;;7.33;100.00
78613;BME280;67933;51.060;3.638;2023-12-20T11:02:45;101868.72;;;7.39;100.00
78613;BME280;67933;51.060;3.638;2023-12-20T11:05:26;101862.34;;;7.46;100.00
78613;BME280;67933;51.060;3.638;2023-12-20T11:08:00;101850.63;;;7.56;100.00
78613;BME280;67933;51.060;3.638;2023-12-20T11:10:31;101854.97;;;7.58;100.00
78613;BME280;67933;51.060;3.638;2023-12-20T11:13:17;101844.91;;;7.71;100.00
78613;BME280;67933;51.060;3.638;2023-12-20T11:15:45;101843.97;;;7.72;100.00
78613;BME280;67933;51.060;3.638;2023-12-20T11:18:11;101851.69;;;7.80;100.00
78613;BME280;67933;51.060;3.638;2023-12-20T11:20:41;101857.84;;;7.80;100.00
78613;BME280;67933;51.060;3.638;2023-12-20T11:23:08;101861.91;;;7.90;100.00
78613;BME280;67933;51.060;3.638;2023-12-20T11:25:55;101862.84;;;7.89;100.00
78613;BME280;67933;51.060;3.638;2023-12-20T11:28:24;101851.75;;;7.77;100.00
78613;BME280;67933;51.060;3.638;2023-12-20T11:30:54;101849.06;;;7.78;100.00
78613;BME280;67933;51.060;3.638;2023-12-20T11:33:36;101844.66;;;7.79;100.00
78613;BME280;67933;51.060;3.638;2023-12-20T11:36:02;101839.38;;;7.79;100.00
78613;BME280;67933;51.060;3.638;2023-12-20T11:38:36;101841.97;;;7.80;100.00
78613;BME280;67933;51.060;3.638;2023-12-20T11:41:05;101837.56;;;7.81;100.00
78613;BME280;67933;51.060;3.638;2023-12-20T11:43:38;101833.94;;;7.83;100.00
78613;BME280;67933;51.060;3.638;2023-12-20T11:46:08;101825.31;;;7.78;100.00
78613;BME280;67933;51.060;3.638;2023-12-20T11:48:38;101822.50;;;7.83;100.00
78613;BME280;67933;51.060;3.638;2023-12-20T11:51:12;101822.38;;;7.87;100.00
78613;BME280;67933;51.060;3.638;2023-12-20T11:53:39;101825.38;;;7.75;100.00
78613;BME280;67933;51.060;3.638;2023-12-20T11:56:08;101818.44;;;7.72;100.00
78613;BME280;67933;51.060;3.638;2023-12-20T11:58:35;101818.47;;;7.71;100.00
78613;BME280;67933;51.060;3.638;2023-12-20T12:01:01;101813.38;;;7.65;100.00
78613;BME280;67933;51.060;3.638;2023-12-20T12:03:29;101806.00;;;7.76;100.00
78613;BME280;67933;51.060;3.638;2023-12-20T12:05:55;101809.63;;;7.73;100.00
78613;BME280;67933;51.060;3.638;2023-12-20T12:08:21;101804.50;;;7.67;100.00
78613;BME280;67933;51.060;3.638;2023-12-20T12:10:46;101805.34;;;7.68;100.00
78613;BME280;67933;51.060;3.638;2023-12-20T12:13:12;101804.38;;;7.72;100.00
78613;BME280;67933;51.060;3.638;2023-12-20T12:15:39;101803.34;;;7.76;100.00
78613;BME280;67933;51.060;3.638;2023-12-20T12:18:05;101810.16;;;7.83;100.00
78613;BME280;67933;51.060;3.638;2023-12-20T12:20:30;101800.28;;;7.90;100.00
78613;BME280;67933;51.060;3.638;2023-12-20T12:22:59;101811.34;;;8.02;100.00
78613;BME280;67933;51.060;3.638;2023-12-20T12:25:25;101813.16;;;8.00;100.00
78613;BME280;67933;51.060;3.638;2023-12-20T12:27:51;101801.84;;;7.97;100.00
78613;BME280;67933;51.060;3.638;2023-12-20T12:30:17;101805.16;;;8.03;100.00
78613;BME280;67933;51.060;3.638;2023-12-20T12:32:44;101795.75;;;8.21;100.00
78613;BME280;67933;51.060;3.638;2023-12-20T12:35:10;101775.97;;;8.34;100.00
78613;BME280;67933;51.060;3.638;2023-12-20T12:37:37;101775.47;;;8.49;100.00
78613;BME280;67933;51.060;3.638;2023-12-20T12:40:11;101776.81;;;8.61;100.00
78613;BME280;67933;51.060;3.638;2023-12-20T12:42:38;101769.97;;;8.80;100.00
78613;BME280;67933;51.060;3.638;2023-12-20T12:45:04;101756.22;;;8.94;100.00